createdAt,value
2022-09-21T00:00:40.325Z,98938.73
2022-09-21T00:11:08.947Z,98942.88
2022-09-21T00:21:18.484Z,98945.83
2022-09-21T00:31:25.808Z,98950.99
2022-09-21T00:41:35.256Z,98954.80
2022-09-21T00:51:42.955Z,98949.05
2022-09-21T01:01:50.876Z,98953.10
2022-09-21T01:11:59.366Z,98957.04
2022-09-21T01:22:15.742Z,98964.16
2022-09-21T01:32:27.987Z,98970.09
2022-09-21T01:42:37.067Z,98972.17
2022-09-21T01:52:50.638Z,98967.91
2022-09-21T02:03:00.126Z,98976.85
2022-09-21T02:13:07.343Z,98984.54
2022-09-21T02:23:17.498Z,98988.23
2022-09-21T02:33:26.613Z,98993.17
2022-09-21T02:43:31.574Z,98997.86
2022-09-21T02:53:41.964Z,99002.53
2022-09-21T03:03:49.817Z,99010.98
2022-09-21T03:13:57.290Z,99019.09
2022-09-21T03:24:05.340Z,99022.33
2022-09-21T03:34:11.877Z,99027.08
2022-09-21T03:44:20.178Z,99033.35
2022-09-21T03:54:27.382Z,99037.55
2022-09-21T04:04:33.608Z,99044.02
2022-09-21T04:14:40.635Z,99055.04
2022-09-21T04:24:48.054Z,99049.95
2022-09-21T04:34:55.543Z,99058.81
2022-09-21T04:45:02.778Z,99058.56
2022-09-21T04:55:11.191Z,99062.59
2022-09-21T05:05:18.401Z,99066.98
2022-09-21T05:15:25.627Z,99073.71
2022-09-21T05:25:33.478Z,99079.02
2022-09-21T05:35:47.895Z,99084.66
2022-09-21T05:45:57.481Z,99087.48
2022-09-21T05:56:11.723Z,99097.29
2022-09-21T06:06:19.043Z,99096.74
2022-09-21T06:16:25.262Z,99098.23
2022-09-21T06:26:32.504Z,99100.76
2022-09-21T06:36:38.720Z,99110.54
2022-09-21T06:46:45.927Z,99120.48
2022-09-21T06:56:51.990Z,99125.66
2022-09-21T07:07:00.631Z,99134.36
2022-09-21T07:17:09.619Z,99148.11
2022-09-21T07:27:23.248Z,99151.59
2022-09-21T07:37:32.941Z,99158.15
2022-09-21T07:47:40.364Z,99165.45
2022-09-21T07:58:04.960Z,99167.93
2022-09-21T08:08:12.415Z,99176.02
2022-09-21T08:18:17.588Z,99178.94
2022-09-21T08:28:23.717Z,99176.65
2022-09-21T08:38:36.987Z,99182.69
2022-09-21T08:48:49.797Z,99187.80
2022-09-21T08:58:57.048Z,99188.85
2022-09-21T09:09:11.717Z,99188.36
2022-09-21T09:19:23.706Z,99186.13
2022-09-21T09:29:31.491Z,99181.41
2022-09-21T09:39:39.872Z,99175.59
2022-09-21T09:49:45.576Z,99170.19
2022-09-21T09:59:55.373Z,99169.00
2022-09-21T10:10:02.558Z,99167.04
2022-09-21T10:20:16.073Z,99159.95
2022-09-21T10:30:42.090Z,99157.49
2022-09-21T10:40:50.198Z,99155.60
2022-09-21T10:50:59.646Z,99160.95
2022-09-21T11:01:24.702Z,99153.63
2022-09-21T11:11:37.327Z,99146.65
2022-09-21T11:21:50.176Z,99145.12
2022-09-21T11:32:11.808Z,99142.09
2022-09-21T11:52:47.576Z,99132.98
2022-09-21T12:03:29.662Z,99139.46
2022-09-21T12:13:42.103Z,99132.01
2022-09-21T12:23:50.007Z,99123.85
2022-09-21T12:34:03.128Z,99120.58
2022-09-21T12:44:14.288Z,99116.60
2022-09-21T12:54:21.381Z,99111.55
2022-09-21T13:04:38.852Z,99115.42
2022-09-21T13:14:48.949Z,99103.90
2022-09-21T13:25:03.779Z,99097.64
2022-09-21T13:35:42.809Z,99094.55
2022-09-21T13:45:54.178Z,99103.95
2022-09-21T13:56:12.636Z,99110.70
2022-09-21T14:17:00.995Z,99102.13
2022-09-21T14:27:16.504Z,99102.48
2022-09-21T14:37:39.387Z,99103.24
2022-09-21T14:47:56.557Z,99093.23
2022-09-21T14:58:14.920Z,99092.91
2022-09-21T15:08:58.367Z,99090.19
2022-09-21T15:19:07.314Z,99092.75
2022-09-21T15:29:13.880Z,99105.55
2022-09-21T15:39:29.649Z,99106.81
2022-09-21T15:49:38.191Z,99109.95
2022-09-21T15:59:44.978Z,99120.21
2022-09-21T16:09:52.395Z,99123.27
2022-09-21T16:20:19.991Z,99135.50
2022-09-21T16:30:46.984Z,99138.86
2022-09-21T16:40:54.913Z,99145.83
2022-09-21T16:51:02.638Z,99149.95
2022-09-21T17:01:13.059Z,99172.74
2022-09-21T17:11:21.573Z,99181.89
2022-09-21T17:21:29.165Z,99180.02
2022-09-21T17:31:38.870Z,99185.71
2022-09-21T17:41:48.723Z,99195.61
2022-09-21T17:52:11.149Z,99200.92
2022-09-21T18:02:15.349Z,99202.50
2022-09-21T18:12:38.215Z,99211.47
2022-09-21T18:22:43.140Z,99220.92
2022-09-21T18:32:52.362Z,99217.16
2022-09-21T18:42:57.978Z,99216.62
2022-09-21T18:53:14.795Z,99215.30
2022-09-21T19:03:23.445Z,99216.86
2022-09-21T19:13:32.789Z,99219.27
2022-09-21T19:23:39.279Z,99218.16
2022-09-21T19:33:50.385Z,99220.45
2022-09-21T19:43:55.945Z,99218.58
2022-09-21T19:54:22.073Z,99221.97
2022-09-21T20:04:34.732Z,99221.69
2022-09-21T20:14:39.518Z,99226.27
2022-09-21T20:24:45.812Z,99222.29
2022-09-21T20:34:52.853Z,99226.05
2022-09-21T20:45:00.403Z,99218.50
2022-09-21T20:55:06.813Z,99221.89
2022-09-21T21:05:14.245Z,99225.92
2022-09-21T21:15:20.247Z,99229.53
2022-09-21T21:25:26.469Z,99227.72
2022-09-21T21:35:33.515Z,99227.05
2022-09-21T21:45:40.211Z,99219.55
2022-09-21T21:55:47.730Z,99211.02
2022-09-21T22:05:57.996Z,99204.49
2022-09-21T22:16:04.157Z,99205.07
2022-09-21T22:26:13.220Z,99196.84
2022-09-21T22:36:22.024Z,99192.88
2022-09-21T22:46:31.148Z,99185.61
2022-09-21T22:56:38.435Z,99192.76
2022-09-21T23:06:46.507Z,99188.06
2022-09-21T23:16:53.269Z,99185.73
2022-09-21T23:27:00.590Z,99179.19
2022-09-21T23:37:08.051Z,99186.00
2022-09-21T23:47:15.059Z,99188.09
2022-09-21T23:57:22.242Z,99186.84
